Time,TemperatureF,DewpointF,PressureIn,WindDirection,WindDirectionDegrees,WindSpeedMPH,WindSpeedGustMPH,Humidity,HourlyPrecipIn,Conditions,Clouds,dailyrainin,SolarRadiationWatts/m^2,SoftwareType,DateUTC
2013-09-04 00:02:00,72.0,57.0,-100.00,West,278,5.0,11.0,60,0.00,,,0.00,97.000000,,2013-09-04 00:02:00,
2013-09-04 00:12:00,72.0,57.0,-100.00,West,278,5.0,11.0,60,0.00,,,0.00,97.000000,,2013-09-04 00:12:00,
2013-09-04 00:42:00,64.0,56.0,-100.00,ENE,71,2.0,7.0,74,0.00,,,0.00,9.000000,,2013-09-04 00:42:00,
2013-09-04 00:52:00,64.0,56.0,-100.00,ENE,71,2.0,7.0,74,0.00,,,0.00,9.000000,,2013-09-04 00:52:00,
2013-09-04 01:02:00,64.0,56.0,-100.00,ENE,71,2.0,7.0,74,0.00,,,0.00,9.000000,,2013-09-04 01:02:00,
2013-09-04 01:12:00,64.0,56.0,-100.00,ENE,71,2.0,7.0,74,0.00,,,0.00,9.000000,,2013-09-04 01:12:00,
2013-09-04 01:42:00,60.0,57.0,-100.00,East,97,1.0,3.0,90,0.00,,,0.00,0.000000,,2013-09-04 01:42:00,
2013-09-04 01:53:00,60.0,57.0,-100.00,East,97,1.0,3.0,90,0.00,,,0.00,0.000000,,2013-09-04 01:53:00,
2013-09-04 02:02:00,60.0,57.0,-100.00,East,97,1.0,3.0,90,0.00,,,0.00,0.000000,,2013-09-04 02:02:00,
2013-09-04 02:11:00,60.0,57.0,-100.00,East,97,1.0,3.0,90,0.00,,,0.00,0.000000,,2013-09-04 02:11:00,
2013-09-04 02:43:00,58.0,56.0,-100.00,WNW,283,0.0,2.0,93,0.00,,,0.00,0.000000,,2013-09-04 02:43:00,
2013-09-04 02:52:00,58.0,56.0,-100.00,WNW,283,0.0,2.0,93,0.00,,,0.00,0.000000,,2013-09-04 02:52:00,
2013-09-04 03:03:00,58.0,56.0,-100.00,WNW,283,0.0,2.0,93,0.00,,,0.00,0.000000,,2013-09-04 03:03:00,
2013-09-04 03:12:00,58.0,56.0,-100.00,WNW,283,0.0,2.0,93,0.00,,,0.00,0.000000,,2013-09-04 03:12:00,
2013-09-04 03:44:00,57.0,55.0,-100.00,East,80,0.0,3.0,94,0.00,,,0.00,0.000000,,2013-09-04 03:44:00,
2013-09-04 03:55:00,57.0,55.0,-100.00,East,80,0.0,3.0,94,0.00,,,0.00,0.000000,,2013-09-04 03:55:00,
2013-09-04 04:04:00,57.0,55.0,-100.00,East,80,0.0,3.0,94,0.00,,,0.00,0.000000,,2013-09-04 04:04:00,
2013-09-04 04:14:00,57.0,55.0,-100.00,East,80,0.0,3.0,94,0.00,,,0.00,0.000000,,2013-09-04 04:14:00,
2013-09-04 04:44:00,55.0,54.0,-100.00,WSW,256,0.0,2.0,95,0.00,,,0.00,0.000000,,2013-09-04 04:44:00,
2013-09-04 04:54:00,55.0,54.0,-100.00,WSW,256,0.0,2.0,95,0.00,,,0.00,0.000000,,2013-09-04 04:54:00,
2013-09-04 05:03:00,55.0,54.0,-100.00,WSW,256,0.0,2.0,95,0.00,,,0.00,0.000000,,2013-09-04 05:03:00,
2013-09-04 05:13:00,55.0,54.0,-100.00,WSW,256,0.0,2.0,95,0.00,,,0.00,0.000000,,2013-09-04 05:13:00,
2013-09-04 05:43:00,55.0,54.0,-100.00,East,95,1.0,2.0,95,0.00,,,0.00,0.000000,,2013-09-04 05:43:00,
2013-09-04 05:53:00,55.0,54.0,-100.00,East,95,1.0,2.0,95,0.00,,,0.00,0.000000,,2013-09-04 05:53:00,
2013-09-04 06:02:00,55.0,54.0,-100.00,East,95,1.0,2.0,95,0.00,,,0.00,0.000000,,2013-09-04 06:02:00,
2013-09-04 06:12:00,55.0,54.0,-100.00,East,95,1.0,2.0,95,0.00,,,0.00,0.000000,,2013-09-04 06:12:00,
2013-09-04 06:42:00,54.0,53.0,-100.00,East,87,0.0,0.0,96,0.00,,,0.00,0.000000,,2013-09-04 06:42:00,
2013-09-04 06:52:00,54.0,53.0,-100.00,East,87,0.0,0.0,96,0.00,,,0.00,0.000000,,2013-09-04 06:52:00,
2013-09-04 07:02:00,54.0,53.0,-100.00,East,87,0.0,0.0,96,0.00,,,0.00,0.000000,,2013-09-04 07:02:00,
2013-09-04 07:12:00,54.0,53.0,-100.00,East,87,0.0,0.0,96,0.00,,,0.00,0.000000,,2013-09-04 07:12:00,
2013-09-04 07:42:00,56.0,55.0,-100.00,East,98,0.0,0.0,96,0.00,,,0.00,0.000000,,2013-09-04 07:42:00,
2013-09-04 07:52:00,56.0,55.0,-100.00,East,98,0.0,0.0,96,0.00,,,0.00,0.000000,,2013-09-04 07:52:00,
2013-09-04 08:02:00,56.0,55.0,-100.00,East,98,0.0,0.0,96,0.00,,,0.00,0.000000,,2013-09-04 08:02:00,
2013-09-04 08:13:00,56.0,55.0,-100.00,East,98,0.0,0.0,96,0.00,,,0.00,0.000000,,2013-09-04 08:13:00,
2013-09-04 08:43:00,58.0,57.0,-100.00,West,267,2.0,4.0,96,0.00,,,0.00,0.000000,,2013-09-04 08:43:00,
2013-09-04 08:52:00,58.0,57.0,-100.00,West,267,2.0,4.0,96,0.00,,,0.00,0.000000,,2013-09-04 08:52:00,
2013-09-04 09:01:00,58.0,57.0,-100.00,West,267,2.0,4.0,96,0.00,,,0.00,0.000000,,2013-09-04 09:01:00,
2013-09-04 09:12:00,58.0,57.0,-100.00,West,267,2.0,4.0,96,0.00,,,0.00,0.000000,,2013-09-04 09:12:00,
2013-09-04 09:43:00,58.0,57.0,-100.00,NE,49,2.0,4.0,97,0.00,,,0.00,0.000000,,2013-09-04 09:43:00,
2013-09-04 09:53:00,58.0,57.0,-100.00,NE,49,2.0,4.0,97,0.00,,,0.00,0.000000,,2013-09-04 09:53:00,
2013-09-04 10:03:00,58.0,57.0,-100.00,NE,49,2.0,4.0,97,0.00,,,0.00,0.000000,,2013-09-04 10:03:00,
2013-09-04 10:12:00,58.0,57.0,-100.00,NE,49,2.0,4.0,97,0.00,,,0.00,0.000000,,2013-09-04 10:12:00,
2013-09-04 10:42:00,57.0,56.0,-100.00,ENE,67,2.0,5.0,97,0.00,,,0.00,0.000000,,2013-09-04 10:42:00,
2013-09-04 10:52:00,57.0,56.0,-100.00,ENE,67,2.0,5.0,97,0.00,,,0.00,0.000000,,2013-09-04 10:52:00,
2013-09-04 11:03:00,57.0,56.0,-100.00,ENE,67,2.0,5.0,97,0.00,,,0.00,0.000000,,2013-09-04 11:03:00,
2013-09-04 11:12:00,57.0,56.0,-100.00,ENE,67,2.0,5.0,97,0.00,,,0.00,0.000000,,2013-09-04 11:12:00,
2013-09-04 11:42:00,57.0,56.0,-100.00,ESE,108,2.0,6.0,97,0.00,,,0.00,2.000000,,2013-09-04 11:42:00,
2013-09-04 11:52:00,57.0,56.0,-100.00,ESE,108,2.0,6.0,97,0.00,,,0.00,2.000000,,2013-09-04 11:52:00,
2013-09-04 12:02:00,57.0,56.0,-100.00,ESE,108,2.0,6.0,97,0.00,,,0.00,2.000000,,2013-09-04 12:02:00,
2013-09-04 12:12:00,57.0,56.0,-100.00,ESE,108,2.0,6.0,97,0.00,,,0.00,2.000000,,2013-09-04 12:12:00,
2013-09-04 12:42:00,57.0,56.0,-100.00,East,79,3.0,5.0,97,0.00,,,0.00,25.000000,,2013-09-04 12:42:00,
2013-09-04 12:52:00,57.0,56.0,-100.00,East,79,3.0,5.0,97,0.00,,,0.00,25.000000,,2013-09-04 12:52:00,
2013-09-04 13:02:00,57.0,56.0,-100.00,East,79,3.0,5.0,97,0.00,,,0.00,25.000000,,2013-09-04 13:02:00,
2013-09-04 13:12:00,57.0,56.0,-100.00,East,79,3.0,5.0,97,0.00,,,0.00,25.000000,,2013-09-04 13:12:00,
2013-09-04 13:42:00,59.0,58.0,-100.00,ESE,109,2.0,5.0,96,0.00,,,0.00,81.000000,,2013-09-04 13:42:00,
2013-09-04 13:52:00,59.0,58.0,-100.00,ESE,109,2.0,5.0,96,0.00,,,0.00,81.000000,,2013-09-04 13:52:00,
2013-09-04 14:02:00,59.0,58.0,-100.00,ESE,109,2.0,5.0,96,0.00,,,0.00,81.000000,,2013-09-04 14:02:00,
2013-09-04 14:11:00,59.0,58.0,-100.00,ESE,109,2.0,5.0,96,0.00,,,0.00,81.000000,,2013-09-04 14:11:00,
2013-09-04 14:42:00,64.0,61.0,-100.00,ESE,117,2.0,4.0,90,0.00,,,0.00,262.000000,,2013-09-04 14:42:00,
2013-09-04 14:52:00,64.0,61.0,-100.00,ESE,117,2.0,4.0,90,0.00,,,0.00,262.000000,,2013-09-04 14:52:00,
2013-09-04 15:02:00,64.0,61.0,-100.00,ESE,117,2.0,4.0,90,0.00,,,0.00,262.000000,,2013-09-04 15:02:00,
2013-09-04 15:12:00,64.0,61.0,-100.00,ESE,117,2.0,4.0,90,0.00,,,0.00,262.000000,,2013-09-04 15:12:00,
2013-09-04 15:44:00,66.0,60.0,-100.00,North,8,4.0,6.0,80,0.00,,,0.00,476.000000,,2013-09-04 15:44:00,
2013-09-04 15:53:00,66.0,60.0,-100.00,North,8,4.0,6.0,80,0.00,,,0.00,476.000000,,2013-09-04 15:53:00,
2013-09-04 16:04:00,66.0,60.0,-100.00,North,8,4.0,6.0,80,0.00,,,0.00,476.000000,,2013-09-04 16:04:00,
2013-09-04 16:12:00,66.0,60.0,-100.00,North,8,4.0,6.0,80,0.00,,,0.00,476.000000,,2013-09-04 16:12:00,
2013-09-04 16:43:00,72.0,60.0,-100.00,East,90,3.0,6.0,65,0.00,,,0.00,765.000000,,2013-09-04 16:43:00,
2013-09-04 16:53:00,72.0,60.0,-100.00,East,90,3.0,6.0,65,0.00,,,0.00,765.000000,,2013-09-04 16:53:00,
2013-09-04 17:03:00,72.0,60.0,-100.00,East,90,3.0,6.0,65,0.00,,,0.00,765.000000,,2013-09-04 17:03:00,
2013-09-04 17:13:00,72.0,60.0,-100.00,East,90,3.0,6.0,65,0.00,,,0.00,765.000000,,2013-09-04 17:13:00,
2013-09-04 17:42:00,71.0,57.0,-100.00,West,263,5.0,9.0,61,0.00,,,0.00,703.000000,,2013-09-04 17:42:00,
2013-09-04 17:53:00,71.0,57.0,-100.00,West,263,5.0,9.0,61,0.00,,,0.00,703.000000,,2013-09-04 17:53:00,
2013-09-04 18:02:00,71.0,57.0,-100.00,West,263,5.0,9.0,61,0.00,,,0.00,703.000000,,2013-09-04 18:02:00,
2013-09-04 18:13:00,71.0,57.0,-100.00,West,263,5.0,9.0,61,0.00,,,0.00,703.000000,,2013-09-04 18:13:00,
2013-09-04 18:42:00,74.0,58.0,-100.00,NNW,328,5.0,10.0,57,0.00,,,0.00,763.000000,,2013-09-04 18:42:00,
2013-09-04 18:52:00,74.0,58.0,-100.00,NNW,328,5.0,10.0,57,0.00,,,0.00,763.000000,,2013-09-04 18:52:00,
2013-09-04 19:02:00,74.0,58.0,-100.00,NNW,328,5.0,10.0,57,0.00,,,0.00,763.000000,,2013-09-04 19:02:00,
2013-09-04 19:11:00,74.0,58.0,-100.00,NNW,328,5.0,10.0,57,0.00,,,0.00,763.000000,,2013-09-04 19:11:00,
2013-09-04 19:42:00,76.0,58.0,-100.00,WSW,253,5.0,9.0,53,0.00,,,0.00,726.000000,,2013-09-04 19:42:00,
2013-09-04 19:53:00,76.0,58.0,-100.00,WSW,253,5.0,9.0,53,0.00,,,0.00,726.000000,,2013-09-04 19:53:00,
2013-09-04 20:02:00,76.0,58.0,-100.00,WSW,253,5.0,9.0,53,0.00,,,0.00,726.000000,,2013-09-04 20:02:00,
2013-09-04 20:12:00,76.0,58.0,-100.00,WSW,253,5.0,9.0,53,0.00,,,0.00,726.000000,,2013-09-04 20:12:00,
2013-09-04 20:43:00,78.0,58.0,-100.00,West,264,4.0,9.0,50,0.00,,,0.00,616.000000,,2013-09-04 20:43:00,
2013-09-04 20:54:00,78.0,58.0,-100.00,West,264,4.0,9.0,50,0.00,,,0.00,616.000000,,2013-09-04 20:54:00,
2013-09-04 21:02:00,78.0,58.0,-100.00,West,264,4.0,9.0,50,0.00,,,0.00,616.000000,,2013-09-04 21:02:00,
2013-09-04 21:12:00,78.0,58.0,-100.00,West,264,4.0,9.0,50,0.00,,,0.00,616.000000,,2013-09-04 21:12:00,
2013-09-04 21:44:00,76.0,54.0,-100.00,West,272,5.0,10.0,47,0.00,,,0.00,468.000000,,2013-09-04 21:44:00,
2013-09-04 21:54:00,76.0,54.0,-100.00,West,272,5.0,10.0,47,0.00,,,0.00,468.000000,,2013-09-04 21:54:00,
2013-09-04 22:04:00,76.0,54.0,-100.00,West,272,5.0,10.0,47,0.00,,,0.00,468.000000,,2013-09-04 22:04:00,
2013-09-04 22:14:00,76.0,54.0,-100.00,West,272,5.0,10.0,47,0.00,,,0.00,468.000000,,2013-09-04 22:14:00,
2013-09-04 23:13:00,76.0,53.0,-100.00,West,264,3.0,8.0,45,0.00,,,0.00,294.000000,,2013-09-04 23:13:00,
2013-09-04 23:42:00,72.0,57.0,-100.00,West,271,3.0,5.0,59,0.00,,,0.00,118.000000,,2013-09-04 23:42:00,
2013-09-04 23:52:00,72.0,57.0,-100.00,West,271,3.0,5.0,59,0.00,,,0.00,118.000000,,2013-09-04 23:52:00,